Time;durP1;ratioP1;P1;durP2;ratioP2;P2;SDS_P1;SDS_P2;PMS_P1;PMS_P2;Temp;Humidity;BMP_temperature;BMP_pressure;BME280_temperature;BME280_humidity;BME280_pressure;Samples;Min_cycle;Max_cycle;Signal;HPM_P1;HPM_P2
2022/08/22 00:00:17;;;;;;;4.17;1.60;;;;;;;18.68;55.80;99925.34;4986976;28;20287;-70
2022/08/22 00:02:55;;;;;;;3.97;1.80;;;;;;;18.57;56.92;99924.69;5008688;28;20266;-71
2022/08/22 00:05:57;;;;;;;3.63;1.57;;;;;;;18.46;56.90;99923.88;5010554;28;20211;-71
2022/08/22 00:08:48;;;;;;;2.83;1.73;;;;;;;18.50;57.37;99921.81;4995161;28;20275;-70
2022/08/22 00:11:24;;;;;;;4.57;1.70;;;;;;;18.52;56.67;99925.94;5003079;28;20616;-70
2022/08/22 00:14:22;;;;;;;2.87;1.60;;;;;;;18.46;56.94;99921.28;5010312;28;20249;-72
2022/08/22 00:17:09;;;;;;;3.73;1.50;;;;;;;18.43;57.12;99921.56;4992197;28;20215;-72
2022/08/22 00:19:34;;;;;;;2.23;1.40;;;;;;;18.49;58.15;99925.38;4991903;28;20196;-73
2022/08/22 00:22:14;;;;;;;1.60;1.50;;;;;;;18.30;58.32;99924.44;4982785;28;20219;-72
2022/08/22 00:25:25;;;;;;;2.20;1.70;;;;;;;18.26;59.22;99917.88;4991969;28;20207;-72
2022/08/22 00:27:58;;;;;;;4.07;1.63;;;;;;;18.32;58.51;99921.69;4977299;28;20203;-71
2022/08/22 00:30:25;;;;;;;3.20;1.60;;;;;;;18.36;58.22;99917.88;4966120;28;20321;-72
2022/08/22 00:33:01;;;;;;;3.60;1.67;;;;;;;18.30;58.58;99924.44;4976118;28;20175;-71
2022/08/22 00:35:39;;;;;;;3.13;1.33;;;;;;;18.31;58.19;99920.06;4989706;28;20261;-71
2022/08/22 00:38:21;;;;;;;2.80;2.03;;;;;;;18.32;57.72;99919.09;4991893;28;20195;-71
2022/08/22 00:40:46;;;;;;;4.73;2.47;;;;;;;18.30;57.67;99911.44;4981753;28;20243;-71
2022/08/22 00:43:33;;;;;;;4.50;2.10;;;;;;;18.15;58.29;99913.63;4980380;28;20191;-71
2022/08/22 00:46:31;;;;;;;4.20;1.83;;;;;;;18.22;58.11;99917.31;4991271;28;20302;-71
2022/08/22 00:49:23;;;;;;;4.07;2.40;;;;;;;18.34;57.35;99914.56;4992195;28;20195;-71
2022/08/22 00:52:26;;;;;;;3.63;2.10;;;;;;;18.33;57.42;99918.97;4961755;28;20274;-71
2022/08/22 00:55:18;;;;;;;6.73;3.20;;;;;;;18.26;58.10;99910.06;4998033;28;20183;-71
2022/08/22 00:58:02;;;;;;;5.17;2.43;;;;;;;18.28;58.29;99917.72;4993631;28;20315;-70
2022/08/22 01:00:33;;;;;;;3.00;1.90;;;;;;;18.37;58.82;99919.53;4987640;28;20302;-71
2022/08/22 01:03:27;;;;;;;1.60;1.40;;;;;;;18.31;59.19;99917.47;5005425;28;20242;-71
2022/08/22 01:06:15;;;;;;;4.50;2.00;;;;;;;18.30;60.21;99915.81;4994183;28;20258;-70
2022/08/22 01:08:57;;;;;;;2.83;1.60;;;;;;;18.35;58.89;99917.03;4994112;28;20184;-71
2022/08/22 01:12:10;;;;;;;3.10;2.03;;;;;;;18.37;58.97;99912.53;4993960;28;20230;-70
2022/08/22 01:14:39;;;;;;;3.47;2.47;;;;;;;18.43;58.47;99911.16;4993275;28;20189;-71
2022/08/22 01:17:23;;;;;;;3.43;2.43;;;;;;;18.42;58.26;99914.72;4993671;28;20212;-71
2022/08/22 01:20:40;;;;;;;4.73;2.07;;;;;;;18.39;58.96;99910.59;5009012;28;20780;-72
2022/08/22 01:23:33;;;;;;;4.23;3.43;;;;;;;18.40;59.84;99911.41;4981827;28;20315;-70
2022/08/22 01:26:29;;;;;;;4.83;2.43;;;;;;;18.30;60.48;99903.63;5001240;28;20214;-72
2022/08/22 01:29:16;;;;;;;4.87;2.03;;;;;;;18.47;59.24;99903.84;5008910;28;20203;-71
2022/08/22 01:32:02;;;;;;;4.00;1.93;;;;;;;18.30;61.90;99905.41;4998354;28;20234;-70
2022/08/22 01:34:33;;;;;;;3.33;2.20;;;;;;;18.28;60.62;99889.91;4975511;28;20214;-71
2022/08/22 01:37:12;;;;;;;5.27;2.07;;;;;;;18.13;61.08;99902.53;4972758;28;20259;-71
2022/08/22 01:43:28;;;;;;;3.20;2.07;;;;;;;18.21;61.00;99891.44;4988918;28;20230;-72
2022/08/22 01:46:15;;;;;;;3.43;2.20;;;;;;;18.21;61.52;99889.66;4990632;28;20211;-71
2022/08/22 01:48:47;;;;;;;2.60;1.40;;;;;;;18.38;61.48;99900.31;5008613;28;20310;-72
2022/08/22 01:51:25;;;;;;;2.97;1.60;;;;;;;18.35;61.60;99893.59;4982058;28;20667;-71
2022/08/22 01:54:04;;;;;;;4.43;1.60;;;;;;;18.42;61.17;99893.03;4986881;28;20184;-71
2022/08/22 01:56:37;;;;;;;3.03;1.50;;;;;;;18.40;61.32;99890.59;4993227;28;20628;-72
2022/08/22 01:59:22;;;;;;;2.20;1.83;;;;;;;18.36;61.19;99882.22;4993425;28;20183;-71
2022/08/22 02:02:11;;;;;;;4.97;2.10;;;;;;;18.32;61.59;99891.28;4996767;28;20214;-71
2022/08/22 02:05:05;;;;;;;2.50;1.47;;;;;;;18.35;61.47;99892.78;4992225;28;20200;-71
2022/08/22 02:07:42;;;;;;;2.13;1.77;;;;;;;18.39;62.41;99887.16;4989615;28;20188;-71
2022/08/22 02:10:14;;;;;;;2.97;1.90;;;;;;;18.31;62.03;99896.63;4998687;28;20327;-71
2022/08/22 02:12:40;;;;;;;2.23;1.73;;;;;;;18.33;63.41;99886.88;5006460;28;20271;-72
2022/08/22 02:15:11;;;;;;;3.87;2.10;;;;;;;18.31;62.84;99896.63;4992441;28;20188;-71
2022/08/22 02:18:05;;;;;;;3.27;1.63;;;;;;;18.24;62.59;99896.34;4993030;28;20207;-71
2022/08/22 02:20:57;;;;;;;2.73;1.63;;;;;;;18.28;63.17;99883.88;4986607;28;20313;-72
2022/08/22 02:23:22;;;;;;;3.83;1.80;;;;;;;18.30;63.37;99887.19;5000748;28;20191;-71
2022/08/22 02:25:55;;;;;;;3.80;1.80;;;;;;;18.23;64.31;99892.09;5006998;28;20203;-71
2022/08/22 02:28:45;;;;;;;3.40;1.40;;;;;;;18.16;63.39;99880.59;4992369;28;20650;-70
2022/08/22 02:31:37;;;;;;;3.37;1.90;;;;;;;18.11;64.67;99882.78;5002706;28;20295;-71
2022/08/22 02:34:34;;;;;;;4.80;1.93;;;;;;;18.04;64.89;99883.34;4999183;28;20246;-72
2022/08/22 02:37:16;;;;;;;2.30;1.60;;;;;;;18.02;65.11;99884.44;4987823;28;20227;-71
2022/08/22 02:39:51;;;;;;;6.27;2.03;;;;;;;18.05;65.91;99886.78;4984498;28;20326;-71
2022/08/22 02:42:32;;;;;;;3.10;1.97;;;;;;;17.98;65.58;99896.09;4997102;28;20234;-72
2022/08/22 02:45:26;;;;;;;4.37;2.10;;;;;;;17.83;67.35;99893.06;4987540;28;20210;-71
2022/08/22 02:48:00;;;;;;;1.97;1.67;;;;;;;17.86;66.62;99885.78;4981356;28;20191;-72
2022/08/22 02:50:37;;;;;;;3.13;1.47;;;;;;;17.87;66.34;99891.81;4981395;28;20231;-71
2022/08/22 02:53:14;;;;;;;4.90;1.70;;;;;;;17.79;67.04;99892.50;5009317;28;20265;-72
2022/08/22 02:55:42;;;;;;;3.47;1.90;;;;;;;17.90;66.93;99889.75;5007452;28;20290;-72
2022/08/22 02:58:19;;;;;;;8.30;2.43;;;;;;;17.84;67.17;99886.91;4992655;28;20175;-71
2022/08/22 03:00:45;;;;;;;3.17;1.50;;;;;;;17.89;67.02;99888.13;4966586;28;20259;-71
2022/08/22 03:03:27;;;;;;;2.47;1.73;;;;;;;17.82;68.02;99887.00;4976646;28;20250;-71
2022/08/22 03:06:04;;;;;;;1.97;1.57;;;;;;;17.76;68.18;99890.16;5002690;28;20211;-71
2022/08/22 03:08:34;;;;;;;1.80;1.67;;;;;;;17.78;68.41;99892.63;4987831;28;20171;-72
2022/08/22 03:11:30;;;;;;;2.23;1.73;;;;;;;17.69;68.09;99889.88;4985462;28;20321;-72
2022/08/22 03:14:19;;;;;;;3.27;1.87;;;;;;;17.61;69.18;99883.72;4996382;28;20180;-71
2022/08/22 03:16:59;;;;;;;3.77;1.63;;;;;;;17.51;68.42;99884.50;5000266;28;20286;-72
2022/08/22 03:19:49;;;;;;;3.50;1.90;;;;;;;17.42;68.53;99888.72;4992856;28;20182;-72
2022/08/22 03:22:27;;;;;;;4.97;1.60;;;;;;;17.50;68.86;99890.69;4998778;28;20233;-71
2022/08/22 03:25:04;;;;;;;3.03;1.97;;;;;;;17.50;68.93;99882.88;5007277;28;20203;-71
2022/08/22 03:27:38;;;;;;;4.33;2.33;;;;;;;17.38;69.63;99884.75;4992131;28;20187;-71
2022/08/22 03:30:10;;;;;;;4.87;2.17;;;;;;;17.35;70.30;99892.00;4989085;28;20179;-70
2022/08/22 03:33:16;;;;;;;4.03;1.70;;;;;;;17.24;70.95;99887.72;4991558;28;20236;-70
2022/08/22 03:35:44;;;;;;;3.90;2.00;;;;;;;17.24;71.84;99896.34;4980320;28;20176;-70
2022/08/22 03:38:32;;;;;;;4.07;2.03;;;;;;;17.13;71.95;99891.25;4976381;28;20271;-71
2022/08/22 03:41:37;;;;;;;4.50;2.23;;;;;;;16.98;73.47;99890.78;4987864;28;20690;-70
2022/08/22 03:44:30;;;;;;;4.53;1.87;;;;;;;17.02;72.41;99893.94;4994367;28;20217;-71
2022/08/22 03:47:20;;;;;;;2.10;1.83;;;;;;;17.06;73.13;99892.72;4991765;28;20187;-71
2022/08/22 03:49:52;;;;;;;2.43;1.70;;;;;;;16.97;73.56;99885.69;4992105;28;20206;-72
2022/08/22 03:53:07;;;;;;;2.07;1.50;;;;;;;16.91;73.83;99887.03;5003158;28;20557;-71
2022/08/22 03:56:09;;;;;;;9.20;2.23;;;;;;;16.96;73.74;99884.09;4995570;28;20539;-71
2022/08/22 03:58:44;;;;;;;3.70;2.20;;;;;;;16.80;75.43;99887.13;4995547;28;20232;-71
2022/08/22 04:01:18;;;;;;;2.13;1.73;;;;;;;16.79;75.60;99888.88;4993928;28;20248;-72
2022/08/22 04:04:15;;;;;;;5.27;2.20;;;;;;;16.51;76.50;99883.41;4990953;28;20200;-72
2022/08/22 04:07:02;;;;;;;3.20;1.90;;;;;;;16.56;77.59;99890.78;4982588;28;20647;-72
2022/08/22 04:09:50;;;;;;;3.20;2.23;;;;;;;16.53;76.25;99888.47;5010104;28;20175;-70
2022/08/22 04:12:38;;;;;;;3.67;2.17;;;;;;;16.52;76.59;99897.19;4981972;28;20281;-71
2022/08/22 04:15:41;;;;;;;3.03;2.03;;;;;;;16.46;76.79;99898.53;4982229;28;20179;-70
2022/08/22 04:18:16;;;;;;;3.73;2.20;;;;;;;16.32;77.35;99904.03;4994670;28;20607;-70
2022/08/22 04:21:06;;;;;;;3.13;1.97;;;;;;;16.29;78.06;99897.31;4990188;28;20230;-71
2022/08/22 04:23:44;;;;;;;2.90;2.10;;;;;;;16.28;79.60;99896.50;5002462;28;20175;-70
2022/08/22 04:26:14;;;;;;;3.93;2.03;;;;;;;16.25;79.90;99895.94;4994331;28;20214;-72
2022/08/22 04:28:46;;;;;;;6.07;2.07;;;;;;;16.22;79.81;99901.38;4994896;28;20187;-71
2022/08/22 04:31:16;;;;;;;2.43;1.90;;;;;;;16.30;79.04;99898.97;5005074;28;20648;-71
2022/08/22 04:33:53;;;;;;;4.43;2.10;;;;;;;16.30;78.07;99902.38;4993539;28;20258;-71
2022/08/22 04:36:25;;;;;;;3.03;1.80;;;;;;;16.39;77.85;99905.19;5009263;28;20190;-72
2022/08/22 04:39:01;;;;;;;4.63;2.03;;;;;;;16.37;78.67;99909.66;4980918;28;20191;-72
2022/08/22 04:41:48;;;;;;;4.07;2.00;;;;;;;16.41;78.29;99905.88;4995447;28;20301;-71
2022/08/22 04:44:26;;;;;;;4.13;1.93;;;;;;;16.40;78.58;99906.84;4990239;28;20212;-71
2022/08/22 04:47:02;;;;;;;4.17;1.90;;;;;;;16.48;77.93;99906.19;4988437;28;20262;-71
2022/08/22 04:49:47;;;;;;;4.20;2.10;;;;;;;16.55;77.89;99902.97;5009470;28;20248;-71
2022/08/22 04:52:25;;;;;;;2.77;1.93;;;;;;;16.54;77.35;99906.50;5005322;28;20221;-71
2022/08/22 04:55:16;;;;;;;3.33;2.10;;;;;;;16.66;77.23;99899.47;5009751;28;20182;-71
2022/08/22 04:58:05;;;;;;;4.07;1.73;;;;;;;16.60;77.82;99908.59;4994004;28;20226;-71
2022/08/22 05:01:01;;;;;;;2.70;2.03;;;;;;;16.59;79.13;99912.13;5002481;28;20297;-71
2022/08/22 05:03:28;;;;;;;3.00;1.97;;;;;;;16.82;77.03;99911.16;5002477;28;20187;-71
2022/08/22 05:05:58;;;;;;;3.67;2.10;;;;;;;16.97;75.93;99914.28;4993862;28;20258;-71
2022/08/22 05:08:29;;;;;;;6.97;2.03;;;;;;;17.02;75.75;99923.34;4994391;28;20238;-71
2022/08/22 05:10:56;;;;;;;3.87;2.10;;;;;;;17.10;73.15;99912.28;4983647;28;20319;-71
2022/08/22 05:13:31;;;;;;;5.30;2.20;;;;;;;17.20;71.62;99912.34;5003170;28;20187;-71
2022/08/22 05:16:02;;;;;;;5.03;2.07;;;;;;;17.43;69.89;99913.78;4994236;28;20660;-71
2022/08/22 05:18:52;;;;;;;6.20;2.40;;;;;;;17.50;69.33;99913.25;4993749;28;20199;-71
2022/08/22 05:21:23;;;;;;;5.37;2.40;;;;;;;17.78;67.67;99909.06;4993430;28;20272;-71
2022/08/22 05:24:03;;;;;;;3.40;2.03;;;;;;;17.89;66.42;99914.13;4989239;28;20741;-71
2022/08/22 05:26:38;;;;;;;3.70;2.10;;;;;;;18.06;67.43;99902.25;4991163;28;20233;-71
2022/08/22 05:29:07;;;;;;;2.40;2.00;;;;;;;18.18;66.02;99904.72;4989107;28;20186;-56
2022/08/22 05:31:42;;;;;;;3.07;2.20;;;;;;;18.29;66.34;99904.56;4993906;28;20227;-56
2022/08/22 05:34:15;;;;;;;6.77;2.33;;;;;;;18.56;64.46;99916.06;4989085;28;20635;-57
2022/08/22 05:36:50;;;;;;;4.03;1.80;;;;;;;18.80;63.18;99912.16;4990664;28;20658;-57
2022/08/22 05:39:23;;;;;;;4.13;2.23;;;;;;;18.87;62.36;99913.25;4993296;28;20218;-57
2022/08/22 05:41:49;;;;;;;6.33;2.10;;;;;;;18.99;62.30;99914.72;4996895;28;20281;-56
2022/08/22 05:44:24;;;;;;;4.30;2.20;;;;;;;19.09;62.20;99919.91;4995067;28;20191;-57
2022/08/22 05:46:58;;;;;;;6.27;2.13;;;;;;;19.09;60.97;99924.28;4993510;28;20194;-57
2022/08/22 05:49:45;;;;;;;5.40;2.17;;;;;;;19.17;61.38;99925.22;4993241;28;20251;-57
2022/08/22 05:52:41;;;;;;;3.73;2.00;;;;;;;19.31;59.71;99918.72;5004241;28;20239;-57
2022/08/22 05:55:28;;;;;;;5.40;2.30;;;;;;;19.34;59.91;99922.81;4992486;28;20204;-57
2022/08/22 05:58:16;;;;;;;10.73;2.50;;;;;;;19.45;59.56;99929.59;4992761;28;20615;-57
2022/08/22 06:00:44;;;;;;;5.00;2.30;;;;;;;19.32;59.15;99922.13;4982604;28;20686;-57
2022/08/22 06:03:32;;;;;;;4.23;1.90;;;;;;;19.39;59.02;99930.19;5003096;28;20262;-57
2022/08/22 06:06:04;;;;;;;7.00;2.27;;;;;;;19.62;58.76;99930.63;4992202;28;20207;-57
2022/08/22 06:08:34;;;;;;;5.13;2.63;;;;;;;19.75;58.49;99930.28;4992904;28;20176;-57
2022/08/22 06:11:26;;;;;;;5.63;2.37;;;;;;;19.77;57.93;99923.94;4990615;28;20304;-57
2022/08/22 06:14:11;;;;;;;4.57;2.47;;;;;;;19.95;57.33;99934.41;4997464;28;20191;-57
2022/08/22 06:16:52;;;;;;;5.67;2.20;;;;;;;20.19;55.94;99929.56;4990471;28;20179;-57
2022/08/22 06:19:19;;;;;;;7.40;2.93;;;;;;;20.19;56.32;99938.22;4985607;28;20656;-57
2022/08/22 06:21:47;;;;;;;4.77;2.40;;;;;;;20.22;56.09;99939.69;4983206;28;20293;-58
2022/08/22 06:24:19;;;;;;;6.57;2.47;;;;;;;20.24;55.08;99941.22;4986977;28;20531;-57
2022/08/22 06:26:49;;;;;;;5.23;2.60;;;;;;;20.23;55.39;99943.94;4988724;28;20194;-57
2022/08/22 06:29:27;;;;;;;8.53;2.67;;;;;;;20.04;55.31;99944.94;4988790;28;20188;-57
2022/08/22 06:31:52;;;;;;;2.93;2.10;;;;;;;20.05;56.10;99950.00;4987977;28;20227;-57
2022/08/22 06:34:31;;;;;;;5.50;2.20;;;;;;;20.28;55.49;99947.78;4991283;28;20222;-57
2022/08/22 06:37:01;;;;;;;6.10;2.33;;;;;;;20.44;54.81;99948.84;4987640;28;20183;-57
2022/08/22 06:39:29;;;;;;;6.40;2.30;;;;;;;20.64;53.70;99950.31;4990021;28;20246;-57
2022/08/22 06:41:58;;;;;;;5.97;2.43;;;;;;;20.86;53.03;99950.81;4980453;28;20409;-57
2022/08/22 06:44:27;;;;;;;6.83;2.80;;;;;;;20.91;52.31;99943.34;4995453;28;20211;-57
2022/08/22 06:46:57;;;;;;;5.67;2.33;;;;;;;21.21;51.47;99945.59;4985628;28;20266;-57
2022/08/22 06:49:24;;;;;;;7.07;2.63;;;;;;;21.85;48.87;99953.84;4988774;28;20187;-57
2022/08/22 06:51:50;;;;;;;7.47;2.40;;;;;;;22.42;47.07;99949.66;4987773;28;20218;-57
2022/08/22 06:54:26;;;;;;;3.27;2.20;;;;;;;22.76;46.25;99947.81;4987436;28;20184;-57
2022/08/22 06:56:54;;;;;;;7.00;2.23;;;;;;;23.18;44.75;99959.84;4990759;28;20179;-59
2022/08/22 06:59:26;;;;;;;4.27;2.80;;;;;;;24.08;42.60;99963.84;4991506;28;20188;-57
2022/08/22 07:02:02;;;;;;;4.77;2.23;;;;;;;25.77;38.79;99971.28;4970889;28;20223;-57
2022/08/22 07:04:27;;;;;;;6.03;2.60;;;;;;;26.30;37.27;99977.31;4989858;28;20245;-57
2022/08/22 07:06:57;;;;;;;3.30;2.20;;;;;;;25.64;38.16;99979.06;4992029;28;20536;-58
2022/08/22 07:09:33;;;;;;;4.53;2.08;;;;;;;25.43;39.17;99983.28;4992453;28;20274;-57
2022/08/22 07:12:02;;;;;;;4.15;2.28;;;;;;;25.69;38.54;99979.31;4996446;28;20222;-57
2022/08/22 07:14:39;;;;;;;7.13;2.35;;;;;;;25.75;38.58;99983.00;4991178;28;20191;-57
2022/08/22 07:17:08;;;;;;;3.65;2.40;;;;;;;25.56;38.55;99976.53;4977620;28;20227;-57
2022/08/22 07:19:35;;;;;;;2.55;2.30;;;;;;;25.74;38.19;99976.13;4988084;28;20329;-57
2022/08/22 07:22:23;;;;;;;4.15;2.25;;;;;;;25.88;37.85;99977.88;4996354;28;20318;-57
2022/08/22 07:24:56;;;;;;;5.45;2.90;;;;;;;26.44;37.52;99975.59;4988562;28;20203;-57
2022/08/22 07:27:36;;;;;;;4.20;2.58;;;;;;;26.97;36.05;99973.31;4985728;28;20186;-57
2022/08/22 07:30:12;;;;;;;4.70;2.78;;;;;;;26.27;36.93;99991.66;4996107;28;20206;-57
2022/08/22 07:32:44;;;;;;;3.45;2.28;;;;;;;24.90;40.33;99991.25;4945096;28;20219;-57
2022/08/22 07:35:14;;;;;;;5.35;2.95;;;;;;;25.42;39.26;99980.84;4996523;28;20230;-57
2022/08/22 07:38:06;;;;;;;5.28;2.42;;;;;;;25.32;39.28;99983.72;4995752;28;20717;-57
2022/08/22 07:40:52;;;;;;;4.63;2.33;;;;;;;25.53;38.88;99983.00;4986124;28;20669;-57
2022/08/22 07:43:38;;;;;;;4.45;2.70;;;;;;;25.60;39.06;99985.69;4992049;28;20194;-57
2022/08/22 07:46:25;;;;;;;4.28;2.55;;;;;;;25.20;39.75;99980.72;4976926;28;20204;-57
2022/08/22 07:48:55;;;;;;;3.63;2.30;;;;;;;24.80;40.52;99988.88;4986374;28;20203;-57
2022/08/22 07:51:34;;;;;;;5.38;2.70;;;;;;;25.32;39.82;99988.97;4989183;28;20257;-57
2022/08/22 07:54:07;;;;;;;6.82;2.35;;;;;;;24.62;41.13;99994.47;4992472;28;20274;-56
2022/08/22 07:56:41;;;;;;;6.28;2.30;;;;;;;23.95;43.09;99995.94;4992324;28;20579;-56
2022/08/22 07:59:13;;;;;;;6.55;2.80;;;;;;;23.47;44.15;99982.88;4991944;28;20183;-57
2022/08/22 08:01:45;;;;;;;7.77;2.57;;;;;;;23.31;45.44;99991.63;4994872;28;20675;-56
2022/08/22 08:04:16;;;;;;;6.90;3.27;;;;;;;23.86;44.62;99983.81;4996171;28;20191;-57
2022/08/22 08:06:42;;;;;;;5.53;3.17;;;;;;;23.97;43.67;99990.50;4995127;28;20233;-57
2022/08/22 08:09:14;;;;;;;3.43;2.77;;;;;;;24.28;43.15;99981.75;4993711;28;20687;-57
2022/08/22 08:11:42;;;;;;;4.63;2.37;;;;;;;24.64;42.47;99981.94;4997490;28;20249;-57
2022/08/22 08:14:12;;;;;;;4.47;2.70;;;;;;;24.88;41.45;99974.84;4996805;28;20197;-57
2022/08/22 08:16:55;;;;;;;4.77;2.97;;;;;;;26.10;39.21;99978.75;4994669;28;20592;-57
2022/08/22 08:19:23;;;;;;;5.25;2.35;;;;;;;27.88;35.64;99981.22;4994878;28;20651;-57
2022/08/22 08:21:52;;;;;;;5.45;2.72;;;;;;;28.96;32.72;99983.69;4998206;28;20226;-57
2022/08/22 08:24:24;;;;;;;6.63;2.50;;;;;;;28.83;32.77;99983.69;4990316;28;20183;-56
2022/08/22 08:29:57;;;;;;;3.40;2.38;;;;;;;28.93;32.23;99983.28;4994681;28;20198;-57
2022/08/22 08:32:26;;;;;;;7.70;2.58;;;;;;;28.58;33.13;99984.31;5009477;28;20219;-57
2022/08/22 08:34:52;;;;;;;8.50;3.00;;;;;;;29.48;31.62;100001.44;4997644;28;20197;-57
2022/08/22 08:37:51;;;;;;;5.68;4.45;;;;;;;30.11;30.97;99999.88;4990336;28;20180;-59
2022/08/22 08:40:34;;;;;;;7.03;3.17;;;;;;;30.08;30.31;100000.28;4980203;28;20393;-57
2022/08/22 08:43:30;;;;;;;5.40;2.40;;;;;;;28.44;33.03;99999.41;5005292;28;20199;-57
2022/08/22 08:46:07;;;;;;;7.88;2.75;;;;;;;27.53;34.49;99995.34;4993775;28;20208;-57
2022/08/22 08:48:57;;;;;;;8.15;3.10;;;;;;;27.72;34.66;99996.41;4994030;28;20183;-57
2022/08/22 08:51:51;;;;;;;3.63;2.50;;;;;;;28.50;33.30;100000.41;4994613;28;20210;-58
2022/08/22 08:55:01;;;;;;;6.13;2.67;;;;;;;28.38;33.86;99992.28;4996679;28;20179;-57
2022/08/22 08:57:49;;;;;;;4.47;2.72;;;;;;;27.49;35.42;100000.19;4988134;28;20199;-57
2022/08/22 09:00:42;;;;;;;5.10;2.70;;;;;;;26.83;37.09;99992.72;4978319;28;20194;-56
2022/08/22 09:03:17;;;;;;;3.97;2.78;;;;;;;26.83;36.73;99990.06;4993383;28;20238;-56
2022/08/22 09:06:15;;;;;;;3.33;2.85;;;;;;;27.12;36.46;99988.22;4993168;28;20229;-57
2022/08/22 09:08:51;;;;;;;3.90;2.67;;;;;;;27.36;36.06;99981.63;4993999;28;20343;-57
2022/08/22 09:11:38;;;;;;;4.93;2.58;;;;;;;27.01;37.08;99987.75;4993261;28;20218;-57
2022/08/22 09:14:38;;;;;;;5.35;3.05;;;;;;;26.34;38.12;99984.63;4990184;28;20624;-57
2022/08/22 09:17:06;;;;;;;6.43;2.88;;;;;;;26.76;37.91;99982.13;4994349;28;20677;-56
2022/08/22 09:19:50;;;;;;;4.00;2.70;;;;;;;28.00;35.13;99985.69;4993556;28;20179;-57
2022/08/22 09:22:54;;;;;;;4.88;3.08;;;;;;;29.54;32.68;99978.59;4989462;28;20250;-57
2022/08/22 09:25:24;;;;;;;4.30;2.63;;;;;;;30.62;30.36;99984.78;4990825;28;20227;-57
2022/08/22 09:28:05;;;;;;;6.38;2.88;;;;;;;31.15;29.64;99985.28;4991024;28;20199;-58
2022/08/22 09:31:07;;;;;;;5.07;3.00;;;;;;;31.80;29.00;99974.00;4984415;28;20233;-57
2022/08/22 09:33:53;;;;;;;3.80;2.78;;;;;;;33.42;26.08;99964.00;4992276;28;20702;-57
2022/08/22 09:36:56;;;;;;;8.13;3.45;;;;;;;33.52;26.33;99966.06;4992403;28;20266;-56
2022/08/22 09:39:37;;;;;;;4.25;2.78;;;;;;;32.34;27.64;99970.53;4979875;28;20230;-57
2022/08/22 09:42:16;;;;;;;4.78;2.90;;;;;;;33.35;25.91;99963.34;4997976;28;20218;-58
2022/08/22 09:44:54;;;;;;;3.60;2.83;;;;;;;33.74;25.81;99958.13;4992722;28;20586;-57
2022/08/22 09:47:32;;;;;;;3.88;2.70;;;;;;;34.45;24.94;99962.22;4993157;28;20187;-57
2022/08/22 09:50:21;;;;;;;6.28;2.67;;;;;;;33.76;25.97;99954.19;4994040;28;20197;-57
2022/08/22 09:52:55;;;;;;;6.30;3.00;;;;;;;34.22;25.06;99956.00;4987164;28;20580;-58
2022/08/22 09:55:32;;;;;;;3.42;2.60;;;;;;;35.18;24.37;99948.69;4991501;28;20223;-58
2022/08/22 09:58:11;;;;;;;4.75;2.92;;;;;;;35.04;23.80;99954.47;4993027;28;20199;-58
2022/08/22 10:01:05;;;;;;;3.65;2.83;;;;;;;35.10;24.51;99952.63;4987188;28;20241;-57
2022/08/22 10:04:08;;;;;;;3.67;2.97;;;;;;;35.87;22.64;99952.56;5000136;28;20234;-57
2022/08/22 10:06:56;;;;;;;3.95;2.80;;;;;;;35.09;23.89;99948.34;4993371;28;20183;-57
2022/08/22 10:09:27;;;;;;;8.25;2.85;;;;;;;36.62;22.62;99938.38;4992408;28;20200;-57
2022/08/22 10:12:00;;;;;;;3.25;2.95;;;;;;;37.22;22.01;99940.72;4996534;28;20223;-58
2022/08/22 10:14:41;;;;;;;4.50;2.78;;;;;;;35.43;23.55;99944.69;4988976;28;20180;-57
2022/08/22 10:17:30;;;;;;;6.07;2.95;;;;;;;35.02;24.00;99945.06;4992200;28;20222;-58
2022/08/22 10:20:18;;;;;;;5.60;3.17;;;;;;;34.73;24.18;99945.22;4991265;28;20233;-57
2022/08/22 10:22:57;;;;;;;9.05;3.25;;;;;;;36.03;22.81;99945.50;4981021;28;20643;-57
2022/08/22 10:25:41;;;;;;;4.22;2.70;;;;;;;36.16;22.68;99936.22;4986918;28;20211;-58
2022/08/22 10:28:45;;;;;;;3.97;2.67;;;;;;;36.20;22.99;99940.00;4988174;28;20178;-58
2022/08/22 10:31:13;;;;;;;3.70;2.72;;;;;;;35.35;23.55;99935.25;4986759;28;20218;-57
2022/08/22 10:33:48;;;;;;;3.88;2.72;;;;;;;35.95;22.50;99932.56;4995005;28;20191;-58
2022/08/22 10:36:39;;;;;;;3.70;2.75;;;;;;;36.02;22.56;99931.31;4986804;28;20186;-57
2022/08/22 10:39:09;;;;;;;4.20;2.33;;;;;;;37.00;21.00;99925.63;4985048;28;20691;-58
2022/08/22 10:41:54;;;;;;;5.90;2.90;;;;;;;36.27;21.59;99924.50;4994081;28;20320;-58
2022/08/22 10:44:47;;;;;;;3.80;2.70;;;;;;;33.42;25.24;99924.81;4980920;28;20246;-57
2022/08/22 10:47:15;;;;;;;3.70;2.47;;;;;;;32.89;25.39;99917.94;4992019;28;20777;-57
2022/08/22 10:50:10;;;;;;;3.72;3.20;;;;;;;32.15;26.29;99924.56;4991783;28;20187;-57
2022/08/22 10:52:46;;;;;;;4.30;2.60;;;;;;;30.87;27.77;99914.88;4988010;28;20214;-56
2022/08/22 10:55:22;;;;;;;10.18;3.35;;;;;;;29.74;29.39;99922.81;4992411;28;20658;-57
2022/08/22 10:58:05;;;;;;;4.00;2.38;;;;;;;29.33;28.28;99905.53;4992370;28;20179;-57
2022/08/22 11:00:53;;;;;;;4.05;2.50;;;;;;;29.23;28.15;99914.72;4972737;28;20238;-57
2022/08/22 11:03:38;;;;;;;3.85;2.88;;;;;;;29.62;28.64;99915.56;4991829;28;20270;-57
2022/08/22 11:06:25;;;;;;;5.90;2.92;;;;;;;29.02;29.86;99896.50;4992083;28;20659;-57
2022/08/22 11:09:13;;;;;;;3.83;2.50;;;;;;;29.19;30.41;99896.78;4992167;28;20203;-57
2022/08/22 11:11:44;;;;;;;3.35;2.88;;;;;;;28.83;30.36;99893.72;4987448;28;20601;-57
2022/08/22 11:14:40;;;;;;;4.03;2.78;;;;;;;28.49;30.14;99891.13;4993599;28;20201;-57
2022/08/22 11:17:21;;;;;;;3.67;2.20;;;;;;;28.76;26.87;99887.63;4985870;28;20266;-57
2022/08/22 11:20:17;;;;;;;2.83;2.05;;;;;;;28.71;27.13;99885.59;4996246;28;20187;-57
2022/08/22 11:23:31;;;;;;;2.97;2.33;;;;;;;28.92;28.86;99873.91;4981370;28;20243;-59
2022/08/22 11:26:17;;;;;;;3.72;2.58;;;;;;;28.69;28.38;99877.06;4989633;28;20298;-57
2022/08/22 11:28:55;;;;;;;5.22;2.72;;;;;;;28.55;29.24;99878.88;4993387;28;20201;-57
2022/08/22 11:31:42;;;;;;;4.20;2.20;;;;;;;28.77;28.72;99876.81;4964331;28;20230;-56
2022/08/22 11:34:18;;;;;;;4.63;2.40;;;;;;;28.73;28.64;99878.25;4973674;28;20341;-57
2022/08/22 11:36:54;;;;;;;3.60;2.65;;;;;;;28.51;28.90;99875.84;4976210;28;20176;-57
2022/08/22 11:39:38;;;;;;;4.60;2.45;;;;;;;28.42;29.34;99877.09;4963490;28;20683;-56
2022/08/22 11:42:31;;;;;;;3.40;2.40;;;;;;;27.91;29.35;99867.16;4997084;28;20612;-57
2022/08/22 11:45:00;;;;;;;5.85;2.92;;;;;;;28.01;28.46;99871.00;4966668;28;20216;-58
2022/08/22 11:47:34;;;;;;;3.67;2.70;;;;;;;28.36;28.73;99862.06;4956603;28;20220;-58
2022/08/22 11:50:17;;;;;;;4.05;3.00;;;;;;;28.55;27.95;99863.00;4956684;28;20599;-57
2022/08/22 11:52:54;;;;;;;3.38;2.13;;;;;;;28.58;27.80;99865.25;4970080;28;20278;-57
2022/08/22 11:55:51;;;;;;;6.38;2.13;;;;;;;28.91;27.36;99860.88;4966907;28;20684;-58
2022/08/22 11:58:37;;;;;;;3.50;2.45;;;;;;;29.30;26.80;99865.19;4965453;28;20256;-57
2022/08/22 12:01:18;;;;;;;4.47;2.20;;;;;;;29.24;25.92;99849.31;4966601;28;20294;-57
2022/08/22 12:03:46;;;;;;;7.80;2.35;;;;;;;29.03;27.03;99853.91;4981545;28;20191;-56
2022/08/22 12:06:30;;;;;;;2.33;2.13;;;;;;;29.13;27.76;99845.50;4955678;28;20233;-57
2022/08/22 12:09:07;;;;;;;5.47;2.83;;;;;;;29.29;26.80;99854.81;4956075;28;20181;-57
2022/08/22 12:12:10;;;;;;;5.68;2.50;;;;;;;29.33;26.33;99848.06;4979287;28;20583;-57
2022/08/22 12:14:45;;;;;;;3.00;2.53;;;;;;;29.75;26.39;99842.28;4984612;28;20286;-57
2022/08/22 12:17:19;;;;;;;6.38;2.92;;;;;;;30.08;26.34;99841.16;4994983;28;20207;-57
2022/08/22 12:20:08;;;;;;;3.67;2.70;;;;;;;30.05;26.11;99849.59;4994703;28;20544;-57
2022/08/22 12:23:03;;;;;;;6.05;2.45;;;;;;;29.48;26.06;99850.41;4983941;28;20286;-57
2022/08/22 12:25:41;;;;;;;7.75;2.50;;;;;;;29.52;26.47;99846.31;4995040;28;20288;-57
2022/08/22 12:28:13;;;;;;;4.47;2.10;;;;;;;29.45;26.04;99845.56;4993908;28;20655;-57
2022/08/22 12:30:56;;;;;;;4.63;2.25;;;;;;;29.33;25.94;99848.06;4981833;28;20608;-57
2022/08/22 12:33:43;;;;;;;5.68;2.20;;;;;;;29.46;25.90;99841.88;4998448;28;20186;-58
2022/08/22 12:36:20;;;;;;;6.05;2.65;;;;;;;29.14;26.37;99833.91;4993855;28;20237;-57
2022/08/22 12:39:31;;;;;;;3.33;2.28;;;;;;;29.21;26.55;99831.19;4992779;28;20230;-57
2022/08/22 12:42:11;;;;;;;3.63;2.42;;;;;;;29.17;27.13;99832.66;4978161;28;20222;-57
2022/08/22 12:45:06;;;;;;;5.43;2.17;;;;;;;29.53;26.47;99832.03;4972834;28;20208;-57